.
WxDataArchive / Data Records for 2014-12-03
2014-12-02 December 2014 2014-12-04

Data Records for Wednesday, 03 December 2014

Time	Temp	Chill	HIndex	Humid	Dewpt	 Wind 	HiWind	WindDir	Rain 	Barom
-----	----	-----	------	-----	-----	------	------	-------	-----	-----
00:00	32.4	32.4	32.4	91	30.1	0	2	90	0.00	30.104 
00:05	32.5	32.5	32.5	91	30.2	0	2	90	0.00	30.104 
00:10	32.5	32.5	32.5	91	30.2	1	3	90	0.00	30.104 
00:15	32.5	32.5	32.5	91	30.2	0	1	90	0.00	30.094 
00:20	32.5	32.5	32.5	91	30.2	0	2	90	0.00	30.094 
00:25	32.5	32.5	32.5	91	30.2	0	2	90	0.00	30.094 
00:30	32.5	32.5	32.5	91	30.2	0	4	90	0.00	30.093 
00:35	32.5	32.5	32.5	91	30.2	1	3	90	0.00	30.093 
00:40	32.4	32.4	32.4	91	30.1	1	3	90	0.00	30.093 
00:45	32.4	32.4	32.4	91	30.1	1	2	90	0.00	30.092 
00:50	32.4	32.4	32.4	91	30.1	1	4	90	0.00	30.092 
00:55	32.4	32.4	32.4	92	30.3	1	3	90	0.00	30.092 
01:00	32.4	32.4	32.4	92	30.3	0	3	90	0.00	30.089 
01:05	32.4	32.4	32.4	92	30.3	1	3	90	0.00	30.089 
01:10	32.4	32.4	32.4	92	30.3	0	3	90	0.00	30.089 
01:15	32.4	32.4	32.4	92	30.3	1	3	90	0.00	30.089 
01:20	32.4	32.4	32.4	92	30.3	0	2	90	0.00	30.089 
01:25	32.4	32.4	32.4	92	30.3	1	6	248	0.00	30.089 
01:30	32.4	32.4	32.4	92	30.3	0	4	248	0.00	30.087 
01:35	32.4	32.4	32.4	92	30.3	0	2	248	0.00	30.087 
01:40	32.4	32.4	32.4	92	30.3	1	3	248	0.00	30.087 
01:45	32.4	32.4	32.4	92	30.3	0	3	248	0.00	30.086 
01:50	32.4	32.4	32.4	92	30.3	1	3	248	0.00	30.086 
01:55	32.4	32.4	32.4	92	30.3	0	2	248	0.00	30.086 
02:00	32.4	32.4	32.4	92	30.3	0	2	248	0.00	30.085 
02:05	32.2	32.2	32.2	92	30.1	0	3	248	0.00	30.085 
02:10	32.2	32.2	32.2	92	30.1	0	3	248	0.00	30.085 
02:15	32.2	32.2	32.2	92	30.1	0	2	248	0.00	30.085 
02:20	32.2	32.2	32.2	92	30.1	0	3	248	0.00	30.085 
02:25	32.2	32.2	32.2	92	30.1	0	3	248	0.00	30.085 
02:30	32.2	32.2	32.2	92	30.1	0	3	248	0.00	30.087 
02:35	32.2	32.2	32.2	92	30.1	0	3	248	0.00	30.087 
02:40	32.2	32.2	32.2	92	30.1	0	4	248	0.00	30.087 
02:45	32.2	32.2	32.2	92	30.1	1	4	248	0.00	30.088 
02:50	32.2	32.2	32.2	92	30.1	1	4	248	0.00	30.088 
02:55	32.2	32.2	32.2	92	30.1	1	4	248	0.00	30.088 
03:00	32.2	32.2	32.2	92	30.1	1	3	248	0.00	30.088 
03:05	32.2	32.2	32.2	92	30.1	1	3	248	0.00	30.088 
03:10	32.2	32.2	32.2	92	30.1	1	3	270	0.00	30.088 
03:15	32.2	32.2	32.2	92	30.1	1	4	270	0.00	30.088 
03:20	32.2	32.2	32.2	91	29.9	0	2	270	0.00	30.088 
03:25	32.2	32.2	32.2	91	29.9	0	4	270	0.00	30.088 
03:30	32.2	32.2	32.2	91	29.9	1	5	248	0.00	30.087 
03:35	32.2	32.2	32.2	90	29.6	1	4	248	0.00	30.087 
03:40	32.2	32.2	32.2	90	29.6	1	5	248	0.00	30.087 
03:45	32.2	32.2	32.2	89	29.3	1	3	248	0.00	30.086 
03:50	32.2	32.2	32.2	89	29.3	1	4	248	0.00	30.086 
03:55	32.2	32.2	32.2	89	29.3	1	6	248	0.00	30.086 
04:00	32.2	32.2	32.2	89	29.3	1	5	248	0.00	30.085 
04:05	32.2	32.2	32.2	88	29.1	2	6	248	0.00	30.085 
04:10	32.1	32.1	32.1	88	29.0	1	5	248	0.00	30.085 
04:15	32.1	32.1	32.1	88	29.0	2	5	292	0.00	30.081 
04:20	31.9	31.9	31.9	88	28.8	2	6	270	0.00	30.081 
04:25	31.9	31.9	31.9	88	28.8	2	5	292	0.00	30.081 
04:30	31.9	31.9	31.9	88	28.8	3	9	248	0.00	30.082 
04:35	31.9	31.9	31.9	87	28.5	2	5	248	0.00	30.082 
04:40	31.9	31.9	31.9	87	28.5	1	4	270	0.00	30.082 
04:45	31.8	31.8	31.8	87	28.4	2	5	248	0.00	30.087 
04:50	31.8	31.8	31.8	87	28.4	2	5	270	0.00	30.087 
04:55	31.8	31.8	31.8	87	28.4	1	6	248	0.00	30.087 
05:00	31.6	31.6	31.6	86	27.9	3	7	270	0.00	30.089 
05:05	31.6	31.6	31.6	86	27.9	2	7	248	0.00	30.089 
05:10	31.6	31.6	31.6	86	27.9	2	6	248	0.00	30.089 
05:15	31.5	31.5	31.5	86	27.8	2	6	270	0.00	30.088 
05:20	31.5	31.5	31.5	86	27.8	2	10	248	0.00	30.088 
05:25	31.5	31.5	31.5	86	27.8	2	5	270	0.00	30.088 
05:30	31.5	31.5	31.5	86	27.8	1	5	248	0.00	30.098 
05:35	31.3	31.3	31.3	86	27.6	2	4	248	0.00	30.098 
05:40	31.3	31.3	31.3	86	27.6	2	6	248	0.00	30.098 
05:45	31.2	31.2	31.2	86	27.5	2	7	248	0.00	30.100 
05:50	30.9	30.9	30.9	85	26.9	2	4	270	0.00	30.100 
05:55	30.9	30.9	30.9	84	26.6	2	5	270	0.00	30.100 
06:00	30.7	30.7	30.7	83	26.2	2	5	248	0.00	30.106 
06:05	30.6	30.6	30.6	81	25.5	2	4	248	0.00	30.106 
06:10	30.6	30.6	30.6	80	25.2	3	6	248	0.00	30.106 
06:15	30.6	30.6	30.6	80	25.2	2	6	248	0.00	30.106 
06:20	30.6	30.6	30.6	79	24.9	2	5	270	0.00	30.106 
06:25	30.6	30.6	30.6	79	24.9	2	5	270	0.00	30.106 
06:30	30.6	30.6	30.6	79	24.9	1	4	270	0.00	30.117 
06:35	30.6	30.6	30.6	80	25.2	2	5	270	0.00	30.117 
06:40	30.6	30.6	30.6	80	25.2	1	4	270	0.00	30.117 
06:45	30.6	30.6	30.6	79	24.9	1	5	248	0.00	30.122 
06:50	30.6	30.6	30.6	80	25.2	1	3	248	0.00	30.122 
06:55	30.6	30.6	30.6	80	25.2	1	5	248	0.00	30.122 
07:00	30.6	30.6	30.6	80	25.2	2	6	270	0.00	30.133 
07:05	30.6	30.6	30.6	80	25.2	2	7	270	0.00	30.133 
07:10	30.6	30.6	30.6	80	25.2	1	4	270	0.00	30.133 
07:15	30.4	30.4	30.4	80	25.0	2	5	270	0.00	30.134 
07:20	30.4	30.4	30.4	80	25.0	2	5	248	0.00	30.134 
07:25	30.4	30.4	30.4	80	25.0	3	6	248	0.00	30.134 
07:30	30.4	30.4	30.4	80	25.0	2	5	270	0.00	30.135 
07:35	30.4	30.4	30.4	80	25.0	2	3	270	0.00	30.135 
07:40	30.3	30.3	30.3	80	24.9	2	5	270	0.00	30.135 
07:45	30.3	30.3	30.3	80	24.9	2	5	292	0.00	30.138 
07:50	30.3	30.3	30.3	80	24.9	1	3	292	0.00	30.138 
07:55	30.3	30.3	30.3	80	24.9	1	4	270	0.00	30.138 
08:00	30.3	30.3	30.3	80	24.9	1	4	270	0.00	30.143 
08:05	30.3	30.3	30.3	80	24.9	2	5	270	0.00	30.143 
08:10	30.1	30.1	30.1	80	24.7	1	3	248	0.00	30.143 
08:15	30.1	30.1	30.1	80	24.7	1	3	225	0.00	30.141 
08:20	30.0	30.0	30.0	80	24.6	1	2	248	0.00	30.141 
08:25	30.0	30.0	30.0	81	24.9	1	3	248	0.00	30.141 
08:30	30.0	30.0	30.0	81	24.9	1	5	248	0.00	30.148 
08:35	30.1	30.1	30.1	81	25.0	1	3	270	0.00	30.148 
08:40	30.1	30.1	30.1	81	25.0	0	3	248	0.00	30.148 
08:45	30.1	30.1	30.1	81	25.0	2	5	248	0.00	30.154 
08:50	30.3	30.3	30.3	81	25.2	2	5	248	0.00	30.154 
08:55	30.3	30.3	30.3	81	25.2	1	4	248	0.00	30.154 
09:00	30.3	30.3	30.3	81	25.2	1	5	248	0.00	30.163 
09:05	30.4	30.4	30.4	81	25.3	1	4	248	0.00	30.163 
09:10	30.4	30.4	30.4	82	25.6	1	9	248	0.00	30.163 
09:15	30.4	30.4	30.4	81	25.3	2	6	248	0.00	30.152 
09:20	30.6	30.6	30.6	82	25.8	1	5	248	0.00	30.152 
09:25	30.7	30.7	30.7	81	25.6	2	6	270	0.00	30.152 
09:30	30.9	30.9	30.9	81	25.8	2	5	248	0.00	30.165 
09:35	31.0	31.0	31.0	81	25.9	1	5	248	0.00	30.165 
09:40	31.2	31.2	31.2	81	26.1	2	5	248	0.00	30.165 
09:45	31.5	31.5	31.5	81	26.4	1	5	248	0.00	30.167 
09:50	31.6	31.6	31.6	80	26.2	1	4	248	0.00	30.167 
09:55	31.8	31.8	31.8	79	26.0	2	5	248	0.00	30.167 
10:00	31.9	31.9	31.9	79	26.1	2	5	248	0.00	30.166 
10:05	32.1	32.1	32.1	78	26.0	2	5	248	0.00	30.166 
10:10	32.4	32.4	32.4	78	26.3	2	6	248	0.00	30.166 
10:15	32.7	32.7	32.7	77	26.3	2	5	248	0.00	30.170 
10:20	32.8	32.8	32.8	76	26.1	2	9	248	0.00	30.170 
10:25	32.9	32.9	32.9	75	25.9	3	7	248	0.00	30.170 
10:30	33.1	33.1	33.1	75	26.1	2	6	248	0.00	30.174 
10:35	33.2	33.2	33.2	74	25.8	2	10	248	0.00	30.174 
10:40	33.5	33.5	33.5	74	26.1	2	5	248	0.00	30.174 
10:45	34.0	34.0	34.0	73	26.3	1	5	248	0.00	30.180 
10:50	34.0	34.0	34.0	72	25.9	2	6	270	0.00	30.180 
10:55	34.1	34.1	34.1	72	26.0	3	5	270	0.00	30.180 
11:00	34.3	34.3	34.3	72	26.2	2	6	270	0.00	30.182 
11:05	34.6	34.6	34.6	71	26.2	2	9	248	0.00	30.182 
11:10	34.9	34.9	34.9	71	26.5	2	5	248	0.00	30.182 
11:15	35.3	35.3	35.3	69	26.2	1	5	248	0.00	30.183 
11:20	35.5	35.5	35.5	69	26.4	2	4	248	0.00	30.183 
11:25	35.6	35.6	35.6	67	25.7	2	5	270	0.00	30.183 
11:30	35.6	35.6	35.6	67	25.7	2	6	248	0.00	30.181 
11:35	35.8	35.8	35.8	65	25.2	3	9	270	0.00	30.181 
11:40	35.9	35.9	35.9	64	24.9	3	5	270	0.00	30.181 
11:45	36.0	36.0	36.0	63	24.6	3	6	270	0.00	30.182 
11:50	36.3	36.3	36.3	62	24.5	3	5	270	0.00	30.182 
11:55	36.5	36.5	36.5	62	24.7	3	6	270	0.00	30.182 
12:00	36.8	36.8	36.8	62	25.0	3	6	292	0.00	30.187 
12:05	36.9	36.9	36.9	61	24.7	3	6	248	0.00	30.187 
12:10	37.2	37.2	37.2	61	25.0	3	9	248	0.00	30.187 
12:15	37.3	37.3	37.3	60	24.7	2	7	270	0.00	30.186 
12:20	37.2	37.2	37.2	59	24.2	3	7	270	0.00	30.186 
12:25	37.3	37.3	37.3	59	24.3	3	9	270	0.00	30.186 
12:30	37.5	37.5	37.5	58	24.1	3	12	270	0.00	30.185 
12:35	37.5	34.4	37.5	57	23.7	4	11	292	0.00	30.185 
12:40	37.8	37.8	37.8	58	24.4	2	6	248	0.00	30.185 
12:45	38.2	38.2	38.2	57	24.3	1	6	248	0.00	30.188 
12:50	38.3	38.3	38.3	57	24.4	2	6	248	0.00	30.188 
12:55	38.5	38.5	38.5	55	23.8	2	5	270	0.00	30.188 
13:00	38.8	38.8	38.8	54	23.6	2	5	248	0.00	30.189 
13:05	39.1	39.1	39.1	53	23.4	2	4	248	0.00	30.189 
13:10	38.9	38.9	38.9	50	21.9	3	6	270	0.00	30.189 
13:15	38.9	38.9	38.9	50	21.9	2	6	270	0.00	30.191 
13:20	39.2	36.4	39.2	47	20.7	4	10	270	0.00	30.191 
13:25	39.1	39.1	39.1	50	22.0	3	6	248	0.00	30.191 
13:30	39.2	36.4	39.2	46	20.2	4	10	270	0.00	30.191 
13:35	39.2	39.2	39.2	46	20.2	3	6	270	0.00	30.191 
13:40	39.3	39.3	39.3	44	19.2	3	7	248	0.00	30.191 
13:45	39.2	36.4	39.2	42	18.1	4	7	270	0.00	30.193 
13:50	39.2	39.2	39.2	44	19.1	3	5	270	0.00	30.193 
13:55	39.6	39.6	39.6	44	19.5	2	5	270	0.00	30.193 
14:00	39.8	39.8	39.8	42	18.6	3	6	270	0.00	30.191 
14:05	39.8	39.8	39.8	42	18.6	2	6	270	0.00	30.191 
14:10	39.6	39.6	39.6	41	17.9	3	7	270	0.00	30.191 
14:15	39.3	39.3	39.3	41	17.6	3	6	270	0.00	30.196 
14:20	39.3	39.3	39.3	42	18.1	2	5	270	0.00	30.196 
14:25	39.1	36.3	39.1	39	16.3	4	12	270	0.00	30.196 
14:30	38.9	38.9	38.9	40	16.7	3	7	270	0.00	30.203 
14:35	39.1	39.1	39.1	40	16.8	3	6	270	0.00	30.203 
14:40	38.9	38.9	38.9	40	16.7	3	6	270	0.00	30.203 
14:45	38.9	38.9	38.9	41	17.2	3	10	270	0.00	30.208 
14:50	38.9	38.9	38.9	41	17.2	3	10	292	0.00	30.208 
14:55	38.6	35.7	38.6	41	17.0	4	9	270	0.00	30.208 
15:00	38.6	38.6	38.6	42	17.5	3	6	270	0.00	30.215 
15:05	38.6	38.6	38.6	42	17.5	2	7	315	0.00	30.215 
15:10	38.6	38.6	38.6	43	18.1	2	5	292	0.00	30.215 
15:15	38.6	38.6	38.6	43	18.1	3	9	270	0.00	30.218 
15:20	38.6	38.6	38.6	43	18.1	2	5	292	0.00	30.218 
15:25	38.3	35.4	38.3	43	17.8	4	7	292	0.00	30.218 
15:30	38.2	38.2	38.2	44	18.2	3	9	270	0.00	30.228 
15:35	38.3	38.3	38.3	44	18.3	2	4	270	0.00	30.228 
15:40	38.3	38.3	38.3	44	18.3	2	4	248	0.00	30.228 
15:45	38.3	38.3	38.3	44	18.3	1	4	248	0.00	30.234 
15:50	38.2	38.2	38.2	43	17.7	3	5	270	0.00	30.234 
15:55	38.0	38.0	38.0	45	18.6	2	5	248	0.00	30.234 
16:00	37.9	37.9	37.9	44	18.0	2	5	248	0.00	30.235 
16:05	37.9	37.9	37.9	44	18.0	2	4	248	0.00	30.235 
16:10	37.8	37.8	37.8	44	17.9	2	4	270	0.00	30.235 
16:15	37.6	37.6	37.6	44	17.7	2	4	292	0.00	30.240 
16:20	37.6	37.6	37.6	45	18.2	1	4	270	0.00	30.240 
16:25	37.5	37.5	37.5	45	18.1	2	4	270	0.00	30.240 
16:30	37.3	37.3	37.3	45	17.9	1	3	270	0.00	30.243 
16:35	37.2	37.2	37.2	46	18.3	0	2	270	0.00	30.243 
16:40	36.9	36.9	36.9	46	18.1	1	4	270	0.00	30.243 
16:45	36.8	36.8	36.8	46	18.0	0	2	270	0.00	30.250 
16:50	36.5	36.5	36.5	47	18.2	0	1	270	0.00	30.250 
16:55	36.2	36.2	36.2	47	17.9	0	1	270	0.00	30.250 
17:00	35.9	35.9	35.9	48	18.1	0	1	270	0.00	30.251 
17:05	35.8	35.8	35.8	49	18.5	0	1	270	0.00	30.251 
17:10	35.3	35.3	35.3	50	18.5	0	1	270	0.00	30.251 
17:15	35.0	35.0	35.0	50	18.3	0	1	270	0.00	30.258 
17:20	34.7	34.7	34.7	50	18.0	0	0	---	0.00	30.258 
17:25	34.4	34.4	34.4	51	18.2	0	0	---	0.00	30.258 
17:30	34.1	34.1	34.1	52	18.3	0	1	270	0.00	30.267 
17:35	34.0	34.0	34.0	53	18.7	0	1	270	0.00	30.267 
17:40	33.7	33.7	33.7	53	18.4	0	1	270	0.00	30.267 
17:45	33.4	33.4	33.4	54	18.6	0	0	---	0.00	30.273 
17:50	33.1	33.1	33.1	54	18.3	0	1	270	0.00	30.273 
17:55	32.9	32.9	32.9	54	18.1	0	0	---	0.00	30.273 
18:00	32.8	32.8	32.8	55	18.4	0	1	270	0.00	30.276 
18:05	32.8	32.8	32.8	56	18.9	0	2	270	0.00	30.276 
18:10	32.8	32.8	32.8	56	18.9	0	1	270	0.00	30.276 
18:15	32.8	32.8	32.8	57	19.3	0	1	270	0.00	30.277 
18:20	32.7	32.7	32.7	57	19.2	0	0	---	0.00	30.277 
18:25	32.7	32.7	32.7	57	19.2	0	1	270	0.00	30.277 
18:30	32.7	32.7	32.7	57	19.2	0	1	270	0.00	30.289 
18:35	32.7	32.7	32.7	57	19.2	0	1	270	0.00	30.289 
18:40	32.5	32.5	32.5	57	19.0	0	0	---	0.00	30.289 
18:45	32.4	32.4	32.4	58	19.3	0	1	270	0.00	30.296 
18:50	32.2	32.2	32.2	58	19.1	0	1	270	0.00	30.296 
18:55	32.1	32.1	32.1	58	19.0	0	1	270	0.00	30.296 
19:00	31.8	31.8	31.8	58	18.7	0	0	---	0.00	30.304 
19:05	31.5	31.5	31.5	59	18.8	0	0	---	0.00	30.304 
19:10	31.3	31.3	31.3	59	18.7	0	0	---	0.00	30.304 
19:15	31.0	31.0	31.0	60	18.8	0	1	270	0.00	30.306 
19:20	30.9	30.9	30.9	61	19.1	0	0	---	0.00	30.306 
19:25	30.9	30.9	30.9	61	19.1	0	1	270	0.00	30.306 
19:30	30.9	30.9	30.9	61	19.1	0	1	270	0.00	30.310 
19:35	30.7	30.7	30.7	62	19.2	0	1	270	0.00	30.310 
19:40	30.9	30.9	30.9	62	19.4	0	1	270	0.00	30.310 
19:45	31.0	31.0	31.0	61	19.1	0	1	270	0.00	30.312 
19:50	31.0	31.0	31.0	61	19.1	0	1	270	0.00	30.312 
19:55	31.0	31.0	31.0	61	19.1	0	1	270	0.00	30.312 
20:00	31.0	31.0	31.0	61	19.1	0	1	270	0.00	30.312 
20:05	31.0	31.0	31.0	61	19.1	0	1	270	0.00	30.312 
20:10	31.0	31.0	31.0	61	19.1	0	1	270	0.00	30.312 
20:15	30.9	30.9	30.9	61	19.1	0	1	270	0.00	30.316 
20:20	30.9	30.9	30.9	61	19.1	0	1	270	0.00	30.316 
20:25	30.7	30.7	30.7	62	19.2	0	1	270	0.00	30.316 
20:30	30.7	30.7	30.7	62	19.2	0	1	270	0.00	30.327 
20:35	30.6	30.6	30.6	62	19.2	0	1	270	0.00	30.327 
20:40	30.4	30.4	30.4	62	19.0	0	0	---	0.00	30.327 
20:45	30.4	30.4	30.4	62	19.0	0	0	---	0.00	30.334 
20:50	30.3	30.3	30.3	62	18.9	0	1	270	0.00	30.334 
20:55	30.3	30.3	30.3	62	18.9	0	1	270	0.00	30.334 
21:00	30.1	30.1	30.1	62	18.7	0	1	270	0.00	30.338 
21:05	30.0	30.0	30.0	62	18.6	0	0	---	0.00	30.338 
21:10	29.7	29.7	29.7	63	18.7	0	0	---	0.00	30.338 
21:15	29.5	29.5	29.5	63	18.5	0	0	---	0.00	30.342 
21:20	29.4	29.4	29.4	64	18.8	0	0	---	0.00	30.342 
21:25	29.1	29.1	29.1	65	18.8	0	1	270	0.00	30.342 
21:30	28.8	28.8	28.8	65	18.5	0	0	---	0.00	30.349 
21:35	28.7	28.7	28.7	66	18.8	0	0	---	0.00	30.349 
21:40	28.5	28.5	28.5	66	18.6	0	0	---	0.00	30.349 
21:45	28.4	28.4	28.4	67	18.9	0	0	---	0.00	30.348 
21:50	28.2	28.2	28.2	67	18.7	0	0	---	0.00	30.348 
21:55	27.9	27.9	27.9	67	18.4	0	0	---	0.00	30.348 
22:00	27.6	27.6	27.6	68	18.4	0	0	---	0.00	30.358 
22:05	27.5	27.5	27.5	68	18.3	0	0	---	0.00	30.358 
22:10	27.2	27.2	27.2	69	18.4	0	0	---	0.00	30.358 
22:15	26.9	26.9	26.9	70	18.4	0	0	---	0.00	30.357 
22:20	26.7	26.7	26.7	70	18.3	0	0	---	0.00	30.357 
22:25	26.7	26.7	26.7	70	18.3	0	0	---	0.00	30.357 
22:30	26.6	26.6	26.6	71	18.5	0	0	---	0.00	30.358 
22:35	26.6	26.6	26.6	71	18.5	0	0	---	0.00	30.358 
22:40	26.6	26.6	26.6	72	18.8	0	0	---	0.00	30.358 
22:45	26.7	26.7	26.7	72	18.9	0	0	---	0.00	30.361 
22:50	27.0	27.0	27.0	71	18.9	0	0	---	0.00	30.361 
22:55	27.0	27.0	27.0	71	18.9	0	0	---	0.00	30.361 
23:00	27.2	27.2	27.2	70	18.7	0	0	---	0.00	30.365 
23:05	27.3	27.3	27.3	70	18.8	0	0	---	0.00	30.365 
23:10	27.3	27.3	27.3	70	18.8	0	1	270	0.00	30.365 
23:15	27.5	27.5	27.5	69	18.7	0	1	270	0.00	30.362 
23:20	27.5	27.5	27.5	69	18.7	0	0	---	0.00	30.362 
23:25	27.5	27.5	27.5	69	18.7	0	2	270	0.00	30.362 
23:30	27.8	27.8	27.8	69	19.0	0	1	270	0.00	30.363 
23:35	27.8	27.8	27.8	69	19.0	0	1	270	0.00	30.363 
23:40	27.8	27.8	27.8	68	18.6	0	1	270	0.00	30.363 
23:45	27.8	27.8	27.8	68	18.6	0	1	270	0.00	30.370 
23:50	27.8	27.8	27.8	68	18.6	0	1	270	0.00	30.370 
23:55	27.8	27.8	27.8	68	18.6	0	1	270	0.00	30.370 

CoCoRaHS
IN-AL-39
A2 Web Hosting
Creative Commons License
GoDaddy
search engine by freefind advanced

loaded 2018-11-14 03:36:18 • last modified 2010-11-18 10:43:29
Privacy PolicyDisclaimer
• wx.awcolley.com is powered by PmWiki v.2002016 •
• all content (unless otherwise noted) © 2018 A W Colley